Time;durP1;ratioP1;P1;durP2;ratioP2;P2;SDS_P1;SDS_P2;PMS_P1;PMS_P2;Temp;Humidity;BMP_temperature;BMP_pressure;BME280_temperature;BME280_humidity;BME280_pressure;Samples;Min_cycle;Max_cycle;Signal;HPM_P1;HPM_P2
2023/06/07 00:00:53;;;;;;;3.15;2.50;;;;;;;;;;5055111;28;20029;-60
2023/06/07 00:03:21;;;;;;;3.60;2.33;;;;;;;;;;5056264;28;20381;-60
2023/06/07 00:05:47;;;;;;;3.50;2.75;;;;;;;;;;5056635;28;20025;-61
2023/06/07 00:08:13;;;;;;;3.25;2.53;;;;;;;;;;5056147;28;20036;-60
2023/06/07 00:10:39;;;;;;;4.22;2.25;;;;;;;;;;5055846;28;20450;-61
2023/06/07 00:13:05;;;;;;;4.72;2.50;;;;;;;;;;5056604;28;20124;-60
2023/06/07 00:15:31;;;;;;;4.78;2.03;;;;;;;;;;5056293;28;20053;-61
2023/06/07 00:17:59;;;;;;;3.60;2.97;;;;;;;;;;5056313;28;20032;-61
2023/06/07 00:20:26;;;;;;;3.92;2.53;;;;;;;;;;5055807;28;20036;-60
2023/06/07 00:22:55;;;;;;;3.10;2.42;;;;;;;;;;5056130;28;20017;-60
2023/06/07 00:25:21;;;;;;;3.00;2.42;;;;;;;;;;5056542;28;20028;-60
2023/06/07 00:27:47;;;;;;;2.72;2.45;;;;;;;;;;5056167;28;20113;-60
2023/06/07 00:30:13;;;;;;;4.10;2.85;;;;;;;;;;5056011;28;20104;-60
2023/06/07 00:32:39;;;;;;;2.53;2.08;;;;;;;;;;5056238;28;20513;-61
2023/06/07 00:35:07;;;;;;;3.20;2.85;;;;;;;;;;5056171;28;20060;-60
2023/06/07 00:37:33;;;;;;;5.22;2.60;;;;;;;;;;5055913;28;20032;-60
2023/06/07 00:39:59;;;;;;;2.97;2.45;;;;;;;;;;5055630;28;20032;-60
2023/06/07 00:42:25;;;;;;;3.97;2.55;;;;;;;;;;5056294;28;20124;-60
2023/06/07 00:44:51;;;;;;;3.33;2.45;;;;;;;;;;5055528;28;20095;-60
2023/06/07 00:47:17;;;;;;;4.13;2.78;;;;;;;;;;5055440;28;20033;-60
2023/06/07 00:49:44;;;;;;;2.75;2.00;;;;;;;;;;5055914;28;20120;-60
2023/06/07 00:52:11;;;;;;;2.80;2.25;;;;;;;;;;5055402;28;20029;-61
2023/06/07 00:54:37;;;;;;;4.47;2.95;;;;;;;;;;5055321;28;20036;-60
2023/06/07 00:57:05;;;;;;;3.67;2.70;;;;;;;;;;5055946;28;20107;-60
2023/06/07 00:59:31;;;;;;;3.95;2.88;;;;;;;;;;5055187;28;20025;-61
2023/06/07 01:01:57;;;;;;;4.15;2.40;;;;;;;;;;5055092;28;20032;-60
2023/06/07 01:04:24;;;;;;;3.88;2.83;;;;;;;;;;5055107;28;20051;-60
2023/06/07 01:06:52;;;;;;;3.20;2.90;;;;;;;;;;5055064;28;20029;-60
2023/06/07 01:09:18;;;;;;;3.20;2.58;;;;;;;;;;5055027;28;20061;-60
2023/06/07 01:11:46;;;;;;;4.13;2.65;;;;;;;;;;5054396;28;20021;-60
2023/06/07 01:14:12;;;;;;;3.90;2.88;;;;;;;;;;5054927;28;20070;-60
2023/06/07 01:16:40;;;;;;;2.60;2.08;;;;;;;;;;5055455;28;20357;-60
2023/06/07 01:19:06;;;;;;;4.00;3.30;;;;;;;;;;5054628;28;20053;-60
2023/06/07 01:21:33;;;;;;;5.15;3.35;;;;;;;;;;5055076;28;20367;-60
2023/06/07 01:23:59;;;;;;;4.72;3.17;;;;;;;;;;5055009;28;20348;-60
2023/06/07 01:26:27;;;;;;;4.57;3.08;;;;;;;;;;5054713;28;20107;-60
2023/06/07 01:28:54;;;;;;;4.05;3.35;;;;;;;;;;5054679;28;20033;-61
2023/06/07 01:31:21;;;;;;;3.67;2.83;;;;;;;;;;5054921;28;20032;-60
2023/06/07 01:33:48;;;;;;;6.05;3.72;;;;;;;;;;5054344;28;20028;-60
2023/06/07 01:36:14;;;;;;;3.60;3.00;;;;;;;;;;5055123;28;20035;-60
2023/06/07 01:38:41;;;;;;;3.65;3.05;;;;;;;;;;5054531;28;20028;-60
2023/06/07 01:41:08;;;;;;;4.70;3.10;;;;;;;;;;5054403;28;20059;-61
2023/06/07 01:43:34;;;;;;;4.47;3.33;;;;;;;;;;5054697;28;20028;-61
2023/06/07 01:46:00;;;;;;;4.28;3.85;;;;;;;;;;5054797;28;20474;-60
2023/06/07 01:48:26;;;;;;;3.22;2.80;;;;;;;;;;5054288;28;20463;-60
2023/06/07 01:50:52;;;;;;;5.40;3.60;;;;;;;;;;5054342;28;20091;-60
2023/06/07 01:53:18;;;;;;;4.68;3.60;;;;;;;;;;5054293;28;20051;-60
2023/06/07 01:55:44;;;;;;;4.28;3.55;;;;;;;;;;5054540;28;20433;-60
2023/06/07 01:58:40;;;;;;;5.97;4.13;;;;;;;;;;5053965;28;20475;-60
2023/06/07 02:01:14;;;;;;;5.35;3.20;;;;;;;;;;5049951;28;20124;-60
2023/06/07 02:03:41;;;;;;;3.90;3.42;;;;;;;;;;5054500;28;20032;-60
2023/06/07 02:06:09;;;;;;;4.50;3.22;;;;;;;;;;5054065;28;20036;-60
2023/06/07 02:08:48;;;;;;;3.72;3.13;;;;;;;;;;5054053;28;20040;-60
2023/06/07 02:11:15;;;;;;;3.60;3.15;;;;;;;;;;5054321;28;20082;-60
2023/06/07 02:13:42;;;;;;;5.70;3.17;;;;;;;;;;5054785;28;20075;-60
2023/06/07 02:16:09;;;;;;;3.40;3.10;;;;;;;;;;5054210;28;20031;-60
2023/06/07 02:18:40;;;;;;;5.15;3.78;;;;;;;;;;5053837;28;20108;-60
2023/06/07 02:21:06;;;;;;;3.40;2.75;;;;;;;;;;5053839;28;20060;-60
2023/06/07 02:23:32;;;;;;;4.40;3.45;;;;;;;;;;5053373;28;20060;-60
2023/06/07 02:25:58;;;;;;;4.18;3.67;;;;;;;;;;5053776;28;20060;-60
2023/06/07 02:28:24;;;;;;;3.85;3.42;;;;;;;;;;5054307;28;20032;-60
2023/06/07 02:30:51;;;;;;;4.32;3.47;;;;;;;;;;5053703;28;20108;-60
2023/06/07 02:33:21;;;;;;;4.57;3.15;;;;;;;;;;5053915;28;20040;-60
2023/06/07 02:35:47;;;;;;;4.77;3.47;;;;;;;;;;5053635;28;20041;-60
2023/06/07 02:38:13;;;;;;;5.53;3.80;;;;;;;;;;5053712;28;20108;-60
2023/06/07 02:40:39;;;;;;;6.32;3.00;;;;;;;;;;5053296;28;20453;-60
2023/06/07 02:43:05;;;;;;;3.92;3.30;;;;;;;;;;5053337;28;20174;-60
2023/06/07 02:45:31;;;;;;;4.38;3.33;;;;;;;;;;5053504;28;20036;-60
2023/06/07 02:47:57;;;;;;;5.00;4.15;;;;;;;;;;5053910;28;20037;-60
2023/06/07 02:50:23;;;;;;;6.53;3.10;;;;;;;;;;5053956;28;20036;-60
2023/06/07 02:52:50;;;;;;;4.47;3.80;;;;;;;;;;5053702;28;20013;-60
2023/06/07 02:55:16;;;;;;;4.75;3.95;;;;;;;;;;5053057;28;20475;-60
2023/06/07 02:57:42;;;;;;;4.75;3.63;;;;;;;;;;5054320;28;20022;-60
2023/06/07 03:00:11;;;;;;;4.78;3.55;;;;;;;;;;5053464;28;20033;-60
2023/06/07 03:02:38;;;;;;;4.32;3.20;;;;;;;;;;5053392;28;20179;-60
2023/06/07 03:05:04;;;;;;;4.72;3.58;;;;;;;;;;5053633;28;20049;-60
2023/06/07 03:07:32;;;;;;;4.32;3.67;;;;;;;;;;5051894;28;20025;-60
2023/06/07 03:09:58;;;;;;;4.18;3.70;;;;;;;;;;5053269;28;20116;-60
2023/06/07 03:12:24;;;;;;;4.15;3.63;;;;;;;;;;5053899;28;20025;-60
2023/06/07 03:14:50;;;;;;;3.70;3.35;;;;;;;;;;5053241;28;20175;-60
2023/06/07 03:17:17;;;;;;;5.75;3.65;;;;;;;;;;5053611;28;20034;-60
2023/06/07 03:19:43;;;;;;;5.75;3.70;;;;;;;;;;5053225;28;20036;-60
2023/06/07 03:22:09;;;;;;;3.85;3.38;;;;;;;;;;5053819;28;20122;-60
2023/06/07 03:24:38;;;;;;;4.50;3.83;;;;;;;;;;5053452;28;20065;-60
2023/06/07 03:27:05;;;;;;;4.20;3.80;;;;;;;;;;5053193;28;20021;-60
2023/06/07 03:29:31;;;;;;;4.85;3.33;;;;;;;;;;5054245;28;20025;-60
2023/06/07 03:31:57;;;;;;;4.50;3.95;;;;;;;;;;5053076;28;20074;-60
2023/06/07 03:34:23;;;;;;;4.07;3.55;;;;;;;;;;5053677;28;20020;-60
2023/06/07 03:36:49;;;;;;;7.70;3.67;;;;;;;;;;5056988;28;20048;-60
2023/06/07 03:39:15;;;;;;;4.15;3.75;;;;;;;;;;5057173;28;20033;-60
2023/06/07 03:41:41;;;;;;;5.55;3.47;;;;;;;;;;5056835;28;20025;-60
2023/06/07 03:44:07;;;;;;;4.15;3.67;;;;;;;;;;5057020;28;20048;-60
2023/06/07 03:46:33;;;;;;;3.45;2.92;;;;;;;;;;5057033;28;20039;-60
2023/06/07 03:48:59;;;;;;;4.25;3.63;;;;;;;;;;5056476;28;20025;-60
2023/06/07 03:51:26;;;;;;;4.70;3.40;;;;;;;;;;5056637;28;20095;-60
2023/06/07 03:53:51;;;;;;;5.18;3.45;;;;;;;;;;5056688;28;20111;-60
2023/06/07 03:56:18;;;;;;;3.78;3.05;;;;;;;;;;5056618;28;20087;-60
2023/06/07 03:58:45;;;;;;;5.65;3.70;;;;;;;;;;5057263;28;20363;-60
2023/06/07 04:01:11;;;;;;;4.20;3.40;;;;;;;;;;5056414;28;20079;-60
2023/06/07 04:03:37;;;;;;;4.85;4.25;;;;;;;;;;5056784;28;20040;-60
2023/06/07 04:06:03;;;;;;;4.35;3.58;;;;;;;;;;5056515;28;20025;-60
2023/06/07 04:08:29;;;;;;;3.70;3.28;;;;;;;;;;5056398;28;20090;-60
2023/06/07 04:10:55;;;;;;;4.50;3.92;;;;;;;;;;5055817;28;20040;-60
2023/06/07 04:13:21;;;;;;;5.25;3.90;;;;;;;;;;5055958;28;20455;-60
2023/06/07 04:15:47;;;;;;;4.03;3.63;;;;;;;;;;5056197;28;20037;-60
2023/06/07 04:18:13;;;;;;;5.22;4.72;;;;;;;;;;5056162;28;20158;-60
2023/06/07 04:20:41;;;;;;;4.20;3.80;;;;;;;;;;5056631;28;20025;-60
2023/06/07 04:23:07;;;;;;;5.57;4.53;;;;;;;;;;5056010;28;20391;-60
2023/06/07 04:25:33;;;;;;;6.25;4.65;;;;;;;;;;5056451;28;20032;-60
2023/06/07 04:28:00;;;;;;;4.82;4.20;;;;;;;;;;5056782;28;20036;-60
2023/06/07 04:30:34;;;;;;;5.30;4.80;;;;;;;;;;5056602;28;20340;-60
2023/06/07 04:33:01;;;;;;;5.47;4.93;;;;;;;;;;5056099;28;20033;-60
2023/06/07 04:35:31;;;;;;;5.25;4.75;;;;;;;;;;5056242;28;20054;-60
2023/06/07 04:37:57;;;;;;;7.53;5.30;;;;;;;;;;5055732;28;20048;-60
2023/06/07 04:40:23;;;;;;;5.90;4.85;;;;;;;;;;5055681;28;20025;-60
2023/06/07 04:43:04;;;;;;;5.15;4.60;;;;;;;;;;5055932;28;20031;-60
2023/06/07 04:45:31;;;;;;;6.57;3.78;;;;;;;;;;5056125;28;20033;-60
2023/06/07 04:47:58;;;;;;;10.55;4.82;;;;;;;;;;5055640;28;20470;-60
2023/06/07 04:50:24;;;;;;;8.00;5.10;;;;;;;;;;5055708;28;20025;-60
2023/06/07 04:52:50;;;;;;;4.90;4.25;;;;;;;;;;5056056;28;20025;-60
2023/06/07 04:55:17;;;;;;;5.30;4.68;;;;;;;;;;5055413;28;20036;-60
2023/06/07 04:57:45;;;;;;;4.75;4.28;;;;;;;;;;5055913;28;20025;-60
2023/06/07 05:00:13;;;;;;;5.45;4.85;;;;;;;;;;5055680;28;20040;-60
2023/06/07 05:02:43;;;;;;;4.72;4.32;;;;;;;;;;5055135;28;20147;-60
2023/06/07 05:05:09;;;;;;;6.30;4.63;;;;;;;;;;5056320;28;20112;-60
2023/06/07 05:07:36;;;;;;;5.70;4.88;;;;;;;;;;5055272;28;20104;-60
2023/06/07 05:10:02;;;;;;;5.38;4.88;;;;;;;;;;5055101;28;20052;-60
2023/06/07 05:12:28;;;;;;;5.47;4.97;;;;;;;;;;5055845;28;20474;-60
2023/06/07 05:14:54;;;;;;;5.35;4.85;;;;;;;;;;5053303;28;20355;-61
2023/06/07 05:17:20;;;;;;;4.97;4.50;;;;;;;;;;5055613;28;20108;-60
2023/06/07 05:19:46;;;;;;;4.95;4.45;;;;;;;;;;5054779;28;20455;-60
2023/06/07 05:22:14;;;;;;;6.82;4.53;;;;;;;;;;5054384;28;20040;-60
2023/06/07 05:24:40;;;;;;;5.63;4.55;;;;;;;;;;5055032;28;20525;-60
2023/06/07 05:27:06;;;;;;;5.05;4.43;;;;;;;;;;5055272;28;20033;-60
2023/06/07 05:29:32;;;;;;;5.15;4.30;;;;;;;;;;5054764;28;20025;-60
2023/06/07 05:31:58;;;;;;;5.05;4.55;;;;;;;;;;5054681;28;20055;-60
2023/06/07 05:34:25;;;;;;;5.53;4.53;;;;;;;;;;5054718;28;20053;-60
2023/06/07 05:36:51;;;;;;;6.43;4.25;;;;;;;;;;5055209;28;20029;-61
2023/06/07 05:39:17;;;;;;;6.03;5.25;;;;;;;;;;5054582;28;20021;-60
2023/06/07 05:41:43;;;;;;;5.90;4.63;;;;;;;;;;5054582;28;20021;-60
2023/06/07 05:44:09;;;;;;;6.35;5.75;;;;;;;;;;5054691;28;20024;-60
2023/06/07 05:46:35;;;;;;;6.38;5.50;;;;;;;;;;5054688;28;20111;-60
2023/06/07 05:49:01;;;;;;;5.55;5.05;;;;;;;;;;5054415;28;20033;-60
2023/06/07 05:51:27;;;;;;;4.93;4.50;;;;;;;;;;5055094;28;20462;-60
2023/06/07 05:53:53;;;;;;;5.45;4.47;;;;;;;;;;5054313;28;20032;-60
2023/06/07 05:56:21;;;;;;;5.85;4.93;;;;;;;;;;5054636;28;20021;-60
2023/06/07 05:58:49;;;;;;;11.00;4.50;;;;;;;;;;5054063;28;20032;-61
2023/06/07 06:01:15;;;;;;;5.10;4.60;;;;;;;;;;5054107;28;20028;-61
2023/06/07 06:03:41;;;;;;;5.57;4.40;;;;;;;;;;5054449;28;20047;-60
2023/06/07 06:06:15;;;;;;;5.75;3.63;;;;;;;;;;5053992;28;20024;-61
2023/06/07 06:08:41;;;;;;;4.78;4.30;;;;;;;;;;5054035;28;20120;-60
2023/06/07 06:11:07;;;;;;;5.57;4.28;;;;;;;;;;5054364;28;20047;-60
2023/06/07 06:13:33;;;;;;;5.53;4.35;;;;;;;;;;5053825;28;20451;-60
2023/06/07 06:16:00;;;;;;;6.13;4.43;;;;;;;;;;5054579;28;20024;-60
2023/06/07 06:18:26;;;;;;;4.18;3.78;;;;;;;;;;5054442;28;20146;-61
2023/06/07 06:20:52;;;;;;;4.32;3.80;;;;;;;;;;5053927;28;20036;-60
2023/06/07 06:23:18;;;;;;;4.40;3.60;;;;;;;;;;5054668;28;20025;-60
2023/06/07 06:25:43;;;;;;;4.75;3.78;;;;;;;;;;5054845;28;20498;-60
2023/06/07 06:28:10;;;;;;;5.03;4.00;;;;;;;;;;5054381;28;20443;-60
2023/06/07 06:30:35;;;;;;;4.40;4.00;;;;;;;;;;5053803;28;20470;-60
2023/06/07 06:33:02;;;;;;;5.53;4.47;;;;;;;;;;5053911;28;20025;-60
2023/06/07 06:35:28;;;;;;;4.80;4.25;;;;;;;;;;5054033;28;20032;-60
2023/06/07 06:37:54;;;;;;;5.63;4.43;;;;;;;;;;5053958;28;20147;-60
2023/06/07 06:40:20;;;;;;;6.95;4.93;;;;;;;;;;5053894;28;20455;-61
2023/06/07 06:42:46;;;;;;;4.65;4.20;;;;;;;;;;5053939;28;20029;-61
2023/06/07 06:45:12;;;;;;;5.18;4.40;;;;;;;;;;5053849;28;20455;-61
2023/06/07 06:47:41;;;;;;;5.07;3.47;;;;;;;;;;5053907;28;20039;-61
2023/06/07 06:50:08;;;;;;;4.75;3.70;;;;;;;;;;5053921;28;20067;-60
2023/06/07 06:52:34;;;;;;;4.88;4.13;;;;;;;;;;5053633;28;20493;-61
2023/06/07 06:55:00;;;;;;;4.80;4.05;;;;;;;;;;5054024;28;20025;-60
2023/06/07 06:57:25;;;;;;;4.65;4.15;;;;;;;;;;5054335;28;20321;-61
2023/06/07 06:59:51;;;;;;;3.80;3.50;;;;;;;;;;5053419;28;20104;-61
2023/06/07 07:02:17;;;;;;;4.10;3.33;;;;;;;;;;5053634;28;20017;-61
2023/06/07 07:04:43;;;;;;;4.50;3.88;;;;;;;;;;5053384;28;20028;-61
2023/06/07 07:07:10;;;;;;;3.85;3.45;;;;;;;;;;5053342;28;20021;-60
2023/06/07 07:09:36;;;;;;;4.10;3.70;;;;;;;;;;5054410;28;20029;-60
2023/06/07 07:12:02;;;;;;;3.97;3.50;;;;;;;;;;5057689;28;20021;-60
2023/06/07 07:14:27;;;;;;;4.35;3.53;;;;;;;;;;5057227;28;20056;-60
2023/06/07 07:16:54;;;;;;;5.47;3.95;;;;;;;;;;5057186;28;20618;-60
2023/06/07 07:19:20;;;;;;;3.72;3.33;;;;;;;;;;5058047;28;20363;-60
2023/06/07 07:21:46;;;;;;;4.07;3.65;;;;;;;;;;5057103;28;20021;-60
2023/06/07 07:24:12;;;;;;;3.88;3.00;;;;;;;;;;5057182;28;20017;-60
2023/06/07 07:26:39;;;;;;;4.43;3.83;;;;;;;;;;5057566;28;20033;-60
2023/06/07 07:29:05;;;;;;;4.18;3.60;;;;;;;;;;5057011;28;20036;-60
2023/06/07 07:31:33;;;;;;;4.25;3.28;;;;;;;;;;5057019;28;20386;-60
2023/06/07 07:34:00;;;;;;;3.95;3.50;;;;;;;;;;5057424;28;20075;-60
2023/06/07 07:36:26;;;;;;;4.75;3.80;;;;;;;;;;5056921;28;20029;-60
2023/06/07 07:38:52;;;;;;;4.28;3.35;;;;;;;;;;5056892;28;20441;-60
2023/06/07 07:41:18;;;;;;;4.68;3.05;;;;;;;;;;5056886;28;20068;-60
2023/06/07 07:43:44;;;;;;;3.40;2.78;;;;;;;;;;5057622;28;20028;-60
2023/06/07 07:46:10;;;;;;;4.07;2.90;;;;;;;;;;5057221;28;20021;-60
2023/06/07 07:48:36;;;;;;;4.60;2.50;;;;;;;;;;5056603;28;20048;-60
2023/06/07 07:51:02;;;;;;;2.63;1.75;;;;;;;;;;5056327;28;20467;-60
2023/06/07 07:53:28;;;;;;;2.88;2.10;;;;;;;;;;5056512;28;20043;-60
2023/06/07 07:55:55;;;;;;;2.83;2.30;;;;;;;;;;5056614;28;20025;-60
2023/06/07 07:58:21;;;;;;;3.25;2.38;;;;;;;;;;5056396;28;20032;-60
2023/06/07 08:00:47;;;;;;;3.40;2.90;;;;;;;;;;5056546;28;20017;-60
2023/06/07 08:03:13;;;;;;;3.30;2.28;;;;;;;;;;5056262;28;20100;-60
2023/06/07 08:05:39;;;;;;;4.63;2.63;;;;;;;;;;5056368;28;20108;-60
2023/06/07 08:08:05;;;;;;;2.95;2.20;;;;;;;;;;5056934;28;20082;-60
2023/06/07 08:10:31;;;;;;;184.73;55.60;;;;;;;;;;5056472;28;20045;-60
2023/06/07 08:12:57;;;;;;;8.18;5.25;;;;;;;;;;5055643;28;20045;-60
2023/06/07 08:15:23;;;;;;;3.47;2.03;;;;;;;;;;5056689;28;20072;-60
2023/06/07 08:17:49;;;;;;;2.78;1.90;;;;;;;;;;5056082;28;20025;-61
2023/06/07 08:20:15;;;;;;;3.30;2.80;;;;;;;;;;5055890;28;20017;-60
2023/06/07 08:22:42;;;;;;;3.92;2.80;;;;;;;;;;5055032;28;20013;-60
2023/06/07 08:25:09;;;;;;;2.60;1.90;;;;;;;;;;5054768;28;20105;-60
2023/06/07 08:27:35;;;;;;;3.13;2.42;;;;;;;;;;5056765;28;20051;-60
2023/06/07 08:30:01;;;;;;;3.28;2.50;;;;;;;;;;5055843;28;20025;-61
2023/06/07 08:32:28;;;;;;;3.50;2.78;;;;;;;;;;5056200;28;20032;-61
2023/06/07 08:34:55;;;;;;;3.75;2.53;;;;;;;;;;5056095;28;20017;-60
2023/06/07 08:37:21;;;;;;;2.38;2.00;;;;;;;;;;5056329;28;20029;-60
2023/06/07 08:39:47;;;;;;;9.00;2.60;;;;;;;;;;5056466;28;20025;-60
2023/06/07 08:42:13;;;;;;;3.17;2.55;;;;;;;;;;5056234;28;20439;-61
2023/06/07 08:44:40;;;;;;;3.70;3.13;;;;;;;;;;5056231;28;20025;-60
2023/06/07 08:47:07;;;;;;;6.13;2.17;;;;;;;;;;5056119;28;20120;-60
2023/06/07 08:49:33;;;;;;;3.13;2.80;;;;;;;;;;5055568;28;20025;-60
2023/06/07 08:52:01;;;;;;;6.25;2.83;;;;;;;;;;5055612;28;20467;-60
2023/06/07 08:54:27;;;;;;;3.83;2.80;;;;;;;;;;5055648;28;20083;-60
2023/06/07 08:56:57;;;;;;;8.70;2.97;;;;;;;;;;5055998;28;20139;-60
2023/06/07 08:59:26;;;;;;;3.92;2.97;;;;;;;;;;5055384;28;20082;-60
2023/06/07 09:01:53;;;;;;;4.38;3.30;;;;;;;;;;5055167;28;20017;-60
2023/06/07 09:04:19;;;;;;;3.20;2.58;;;;;;;;;;5055078;28;20086;-60
2023/06/07 09:06:45;;;;;;;2.85;2.10;;;;;;;;;;5055574;28;20032;-59
2023/06/07 09:09:11;;;;;;;2.40;1.90;;;;;;;;;;5055385;28;20048;-59
2023/06/07 09:11:37;;;;;;;3.53;2.58;;;;;;;;;;5055396;28;20032;-59
2023/06/07 09:14:03;;;;;;;1.88;1.40;;;;;;;;;;5055222;28;20055;-60
2023/06/07 09:16:29;;;;;;;2.65;1.90;;;;;;;;;;5055039;28;20029;-60
2023/06/07 09:18:56;;;;;;;2.45;1.83;;;;;;;;;;5055020;28;20032;-59
2023/06/07 09:21:22;;;;;;;2.97;2.05;;;;;;;;;;5054798;28;20036;-59
2023/06/07 09:23:49;;;;;;;5.85;2.20;;;;;;;;;;5054874;28;20367;-59
2023/06/07 09:26:19;;;;;;;3.00;2.40;;;;;;;;;;5054936;28;20025;-59
2023/06/07 09:28:46;;;;;;;;;;;;;;;;;;5055232;28;20029;-59
2023/06/07 09:31:12;;;;;;;2.10;1.52;;;;;;;;;;5055303;28;19905;-59
2023/06/07 09:33:38;;;;;;;3.08;2.10;;;;;;;;;;5055300;28;20147;-60
2023/06/07 09:36:04;;;;;;;2.45;1.92;;;;;;;;;;5055236;28;20507;-59
2023/06/07 09:38:30;;;;;;;5.63;2.05;;;;;;;;;;5054604;28;20112;-59
2023/06/07 09:40:59;;;;;;;2.20;1.75;;;;;;;;;;5054231;28;20475;-59
2023/06/07 09:43:25;;;;;;;4.18;1.67;;;;;;;;;;5054760;28;20111;-59
2023/06/07 09:45:55;;;;;;;2.97;1.75;;;;;;;;;;5055016;28;20424;-59
2023/06/07 09:48:21;;;;;;;1.92;1.13;;;;;;;;;;5054568;28;20029;-59
2023/06/07 09:50:55;;;;;;;3.08;2.25;;;;;;;;;;5055250;28;20032;-59
2023/06/07 09:53:21;;;;;;;2.72;2.10;;;;;;;;;;5054971;28;20064;-59
2023/06/07 09:55:47;;;;;;;3.10;1.90;;;;;;;;;;5054197;28;20025;-59
2023/06/07 09:58:20;;;;;;;3.40;2.33;;;;;;;;;;5053904;28;20368;-59
2023/06/07 10:00:46;;;;;;;3.22;1.98;;;;;;;;;;5054669;28;20017;-59
2023/06/07 10:03:12;;;;;;;4.20;2.20;;;;;;;;;;5054056;28;20028;-59
2023/06/07 10:05:39;;;;;;;2.47;1.90;;;;;;;;;;5054032;28;20032;-59
2023/06/07 10:08:05;;;;;;;3.75;1.83;;;;;;;;;;5054982;28;20108;-59
2023/06/07 10:10:34;;;;;;;2.78;2.10;;;;;;;;;;5054068;28;20436;-59
2023/06/07 10:13:03;;;;;;;2.38;1.95;;;;;;;;;;5054565;28;20028;-60
2023/06/07 10:15:29;;;;;;;4.20;2.03;;;;;;;;;;5053814;28;20057;-59
2023/06/07 10:17:57;;;;;;;5.50;2.00;;;;;;;;;;5054544;28;20025;-60
2023/06/07 10:20:27;;;;;;;3.15;2.15;;;;;;;;;;5053869;28;20028;-60
2023/06/07 10:23:06;;;;;;;3.58;1.90;;;;;;;;;;5053849;28;20017;-59
2023/06/07 10:25:38;;;;;;;2.17;1.67;;;;;;;;;;5054076;28;20033;-60
2023/06/07 10:28:27;;;;;;;2.72;1.92;;;;;;;;;;5053961;28;20029;-60
2023/06/07 10:30:57;;;;;;;5.05;2.03;;;;;;;;;;5054434;28;20028;-60
2023/06/07 10:33:26;;;;;;;4.78;1.95;;;;;;;;;;5053758;28;20089;-60
2023/06/07 10:35:53;;;;;;;3.30;2.22;;;;;;;;;;5054113;28;20475;-60
2023/06/07 10:38:19;;;;;;;2.30;1.50;;;;;;;;;;5053445;28;20479;-60
2023/06/07 10:40:45;;;;;;;2.15;1.60;;;;;;;;;;5053367;28;20363;-60
2023/06/07 10:43:11;;;;;;;2.80;2.00;;;;;;;;;;5053627;28;20481;-60
2023/06/07 10:45:37;;;;;;;3.17;1.92;;;;;;;;;;5059325;28;20036;-60
2023/06/07 10:48:29;;;;;;;3.85;2.40;;;;;;;;;;5061012;28;20025;-60
2023/06/07 10:50:55;;;;;;;3.13;1.75;;;;;;;;;;5060419;28;20029;-60
2023/06/07 10:53:22;;;;;;;3.10;1.67;;;;;;;;;;5060205;28;20104;-60
2023/06/07 10:55:47;;;;;;;2.15;1.65;;;;;;;;;;5060407;28;20454;-60
2023/06/07 10:58:26;;;;;;;3.30;1.58;;;;;;;;;;5059983;28;20099;-60
2023/06/07 11:00:54;;;;;;;2.20;1.55;;;;;;;;;;5060077;28;20017;-60
2023/06/07 11:03:23;;;;;;;2.35;1.55;;;;;;;;;;5059816;28;20028;-60
2023/06/07 11:05:58;;;;;;;1.88;1.33;;;;;;;;;;5059855;28;20124;-60
2023/06/07 11:08:26;;;;;;;2.63;1.40;;;;;;;;;;5060034;28;20025;-60
2023/06/07 11:10:58;;;;;;;2.53;1.67;;;;;;;;;;5060049;28;20033;-60
2023/06/07 11:13:25;;;;;;;2.03;1.40;;;;;;;;;;5060705;28;20035;-60
2023/06/07 11:15:51;;;;;;;5.55;1.92;;;;;;;;;;5060550;28;20075;-60
2023/06/07 11:18:17;;;;;;;2.97;1.58;;;;;;;;;;5060606;28;20029;-60
2023/06/07 11:20:44;;;;;;;1.95;1.50;;;;;;;;;;5060204;28;20473;-60
2023/06/07 11:23:20;;;;;;;2.08;1.27;;;;;;;;;;5059966;28;20044;-60
2023/06/07 11:25:46;;;;;;;2.10;1.30;;;;;;;;;;5060281;28;20049;-60
2023/06/07 11:28:13;;;;;;;2.80;1.70;;;;;;;;;;5059924;28;20083;-61
2023/06/07 11:30:45;;;;;;;2.40;1.52;;;;;;;;;;5060168;28;20028;-61
2023/06/07 11:33:24;;;;;;;2.30;1.30;;;;;;;;;;5059977;28;20056;-61
2023/06/07 11:35:50;;;;;;;2.45;1.83;;;;;;;;;;5060485;28;20032;-61
2023/06/07 11:38:16;;;;;;;1.95;1.20;;;;;;;;;;5060069;28;20025;-61
2023/06/07 11:40:43;;;;;;;2.20;1.48;;;;;;;;;;5059489;28;20036;-61
2023/06/07 11:43:10;;;;;;;2.50;1.58;;;;;;;;;;5060174;28;20032;-61
2023/06/07 11:45:38;;;;;;;2.20;1.33;;;;;;;;;;5060112;28;20032;-58
2023/06/07 11:48:04;;;;;;;2.20;1.48;;;;;;;;;;5059932;28;20025;-58
2023/06/07 11:50:30;;;;;;;2.25;1.50;;;;;;;;;;5059896;28;20029;-59
2023/06/07 11:52:56;;;;;;;4.35;1.80;;;;;;;;;;5060397;28;20028;-58
2023/06/07 11:55:22;;;;;;;2.13;1.40;;;;;;;;;;5059299;28;20463;-58
2023/06/07 11:57:53;;;;;;;2.53;1.77;;;;;;;;;;5056499;28;20406;-58
2023/06/07 12:00:23;;;;;;;2.42;1.55;;;;;;;;;;5057015;28;20043;-58
2023/06/07 12:02:49;;;;;;;2.47;1.65;;;;;;;;;;5056160;28;20029;-59
2023/06/07 12:05:17;;;;;;;2.95;1.75;;;;;;;;;;5055581;28;20029;-60
2023/06/07 12:07:43;;;;;;;2.58;1.42;;;;;;;;;;5056304;28;20112;-61
2023/06/07 12:10:10;;;;;;;1.90;1.10;;;;;;;;;;5056509;28;20478;-61
2023/06/07 12:12:37;;;;;;;2.45;1.70;;;;;;;;;;5056435;28;20428;-61
2023/06/07 12:15:03;;;;;;;2.65;1.75;;;;;;;;;;5056265;28;20144;-61
2023/06/07 12:17:34;;;;;;;3.33;1.80;;;;;;;;;;5056650;28;20083;-61
2023/06/07 12:20:08;;;;;;;2.08;1.20;;;;;;;;;;5055788;28;20127;-61
2023/06/07 12:22:34;;;;;;;1.98;1.33;;;;;;;;;;5055900;28;20440;-61
2023/06/07 12:25:09;;;;;;;1.67;1.10;;;;;;;;;;5056551;28;20029;-61
2023/06/07 12:27:37;;;;;;;2.53;1.77;;;;;;;;;;5056436;28;20104;-61
2023/06/07 12:30:04;;;;;;;2.15;1.48;;;;;;;;;;5055935;28;20029;-61
2023/06/07 12:32:31;;;;;;;2.53;1.40;;;;;;;;;;5055891;28;20021;-61
2023/06/07 12:35:05;;;;;;;1.88;1.02;;;;;;;;;;5056255;28;20112;-61
2023/06/07 12:37:37;;;;;;;2.65;1.40;;;;;;;;;;5055894;28;20036;-60
2023/06/07 12:40:05;;;;;;;2.40;1.58;;;;;;;;;;5056112;28;20032;-60
2023/06/07 12:42:32;;;;;;;1.95;1.27;;;;;;;;;;5055588;28;20025;-60
2023/06/07 12:44:58;;;;;;;2.22;1.35;;;;;;;;;;5056123;28;20079;-60
2023/06/07 12:47:24;;;;;;;1.95;1.35;;;;;;;;;;5056145;28;20029;-60
2023/06/07 12:49:51;;;;;;;5.82;1.73;;;;;;;;;;5055478;28;20021;-60
2023/06/07 12:52:17;;;;;;;5.65;1.40;;;;;;;;;;5055678;28;20499;-60
2023/06/07 12:54:43;;;;;;;3.65;1.33;;;;;;;;;;5055593;28;20374;-60
2023/06/07 12:57:09;;;;;;;3.92;1.48;;;;;;;;;;5056065;28;20028;-60
2023/06/07 12:59:35;;;;;;;2.65;1.77;;;;;;;;;;5055603;28;20029;-60
2023/06/07 13:02:01;;;;;;;1.95;1.13;;;;;;;;;;5055110;28;20028;-60
2023/06/07 13:04:27;;;;;;;2.35;1.60;;;;;;;;;;5055211;28;20055;-60
2023/06/07 13:06:53;;;;;;;4.00;1.40;;;;;;;;;;5054884;28;20040;-60
2023/06/07 13:09:20;;;;;;;2.40;1.80;;;;;;;;;;5055365;28;20021;-60
2023/06/07 13:11:46;;;;;;;2.10;1.50;;;;;;;;;;5055942;28;20056;-60
2023/06/07 13:14:12;;;;;;;2.55;1.20;;;;;;;;;;5055022;28;20088;-60
2023/06/07 13:16:39;;;;;;;2.40;1.38;;;;;;;;;;5055645;28;20037;-60
2023/06/07 13:19:05;;;;;;;2.13;1.38;;;;;;;;;;5054941;28;20029;-60
2023/06/07 13:21:32;;;;;;;2.30;1.50;;;;;;;;;;5055765;28;20028;-60
2023/06/07 13:23:58;;;;;;;2.13;1.20;;;;;;;;;;5055381;28;20425;-60
2023/06/07 13:26:24;;;;;;;2.08;1.38;;;;;;;;;;5054867;28;20037;-60
2023/06/07 13:28:50;;;;;;;5.07;1.27;;;;;;;;;;5054748;28;20348;-60
2023/06/07 13:31:16;;;;;;;1.92;1.15;;;;;;;;;;5055439;28;20027;-60
2023/06/07 13:33:43;;;;;;;2.75;1.48;;;;;;;;;;5055181;28;20024;-60
2023/06/07 13:36:09;;;;;;;2.20;1.30;;;;;;;;;;5053062;28;20028;-60
2023/06/07 13:38:36;;;;;;;1.90;1.25;;;;;;;;;;5054502;28;20115;-60
2023/06/07 13:41:02;;;;;;;1.90;1.23;;;;;;;;;;5054562;28;20100;-60
2023/06/07 13:43:28;;;;;;;2.92;1.77;;;;;;;;;;5054176;28;20531;-60
2023/06/07 13:45:54;;;;;;;2.22;1.33;;;;;;;;;;5054699;28;20036;-60
2023/06/07 13:48:20;;;;;;;2.65;1.25;;;;;;;;;;5054552;28;20452;-60
2023/06/07 13:50:49;;;;;;;1.90;1.30;;;;;;;;;;5054094;28;20407;-60
2023/06/07 13:53:19;;;;;;;2.30;1.50;;;;;;;;;;5054354;28;20044;-60
2023/06/07 13:55:47;;;;;;;8.37;1.27;;;;;;;;;;5054058;28;20037;-60
2023/06/07 13:58:13;;;;;;;2.42;1.50;;;;;;;;;;5054242;28;20666;-60
2023/06/07 14:00:39;;;;;;;2.15;1.25;;;;;;;;;;5054506;28;20053;-60
2023/06/07 14:03:04;;;;;;;1.90;0.90;;;;;;;;;;5053959;28;20378;-60
2023/06/07 14:05:31;;;;;;;2.03;1.10;;;;;;;;;;5053952;28;20433;-61
2023/06/07 14:07:57;;;;;;;3.08;1.40;;;;;;;;;;5054720;28;20047;-61
2023/06/07 14:10:23;;;;;;;2.05;1.40;;;;;;;;;;5054122;28;20528;-61
2023/06/07 14:12:49;;;;;;;2.95;1.38;;;;;;;;;;5053984;28;20052;-61
2023/06/07 14:15:15;;;;;;;2.05;1.40;;;;;;;;;;5054357;28;20383;-61
2023/06/07 14:17:41;;;;;;;2.10;1.33;;;;;;;;;;5054555;28;20025;-61
2023/06/07 14:20:07;;;;;;;1.95;1.17;;;;;;;;;;5053082;28;20394;-61
2023/06/07 14:22:34;;;;;;;2.10;1.50;;;;;;;;;;5053034;28;20075;-61
2023/06/07 14:24:59;;;;;;;2.00;1.30;;;;;;;;;;5053925;28;20104;-61
2023/06/07 14:27:25;;;;;;;2.30;1.35;;;;;;;;;;5054567;28;20494;-61
2023/06/07 14:29:51;;;;;;;3.75;1.75;;;;;;;;;;5053712;28;20363;-61
2023/06/07 14:32:17;;;;;;;2.40;1.73;;;;;;;;;;5054071;28;20447;-61
2023/06/07 14:34:43;;;;;;;2.08;1.30;;;;;;;;;;5054002;28;20573;-61
2023/06/07 14:37:09;;;;;;;2.17;1.17;;;;;;;;;;5053685;28;20379;-61
2023/06/07 14:39:35;;;;;;;3.15;1.27;;;;;;;;;;5053961;28;20021;-61
2023/06/07 14:42:01;;;;;;;2.38;1.38;;;;;;;;;;5053490;28;20024;-61